ADDS METAR Data INFO
IDs: Format: Raw Decoded Include TAF

Data at: 1518 UTC 11 Dec 2017

KITH 111456Z 29008KT 6SM -SN BR BKN009 OVC047 M02/M04 A2998 RMK AO2 SLP167 P0000 60000 T10221044 53016
KITH 111415Z 26007KT 1 3/4SM R32/6000VP6000FT -SN BR SCT012 BKN020 OVC036 M02/M04 A2997 RMK AO2 P0000
KITH 111356Z 26007KT 9SM -SN BKN027 OVC047 M03/M05 A2997 RMK AO2 SLP161 P0000 T10281050
KITH 111256Z 26008KT 9SM -SN BKN027 OVC033 M03/M05 A2995 RMK AO2 SLP154 P0000 T10281050
KITH 111156Z 22005KT 9SM -SN SCT025 OVC055 M03/M05 A2994 RMK AO2 SLP151 P0000 60000 T10331050 11017 21033 53015
KITH 111130Z 22005KT 9SM -SN SCT014 OVC060 M03/M05 A2993 RMK AO2 P0000
KITH 111056Z AUTO 23005KT 6SM -SN BR FEW011 SCT037 OVC060 M03/M05 A2992 RMK AO2 SLP144 P0000 T10331050
KITH 111046Z AUTO 24006KT 5SM -SN BR FEW011 BKN037 OVC050 M03/M05 A2992 RMK AO2 P0000
KITH 111031Z AUTO 26006KT 2 1/2SM -SN BR SCT013 OVC035 M03/M05 A2992 RMK AO2 P0000
KITH 111022Z AUTO 27006KT 3SM -SN BR SCT015 BKN022 OVC040 M03/M05 A2992 RMK AO2 P0000
KITH 110956Z AUTO 27007KT 9SM -SN FEW018 SCT030 OVC050 M03/M06 A2991 RMK AO2 SNB16 SLP142 P0000 T10281056
KITH 110924Z AUTO 25008KT 8SM -SN SCT024 BKN034 OVC060 M02/M07 A2990 RMK AO2 SNB16 P0000
KITH 110916Z AUTO 25009KT 10SM -SN BKN028 BKN037 OVC055 M02/M07 A2989 RMK AO2 SNB16 P0000
KITH 110856Z AUTO 24009KT 10SM OVC030 M02/M07 A2989 RMK AO2 SLP135 T10221072 51006
KITH 110756Z AUTO 24006KT 10SM OVC030 M02/M07 A2989 RMK AO2 SLP134 T10221072
KITH 110656Z AUTO 23006KT 10SM OVC032 M02/M07 A2988 RMK AO2 SLP131 T10221072
KITH 110556Z AUTO 25005KT 10SM OVC034 M02/M08 A2988 RMK AO2 SLP129 60000 T10171078 11011 21022 58001
KITH 110456Z AUTO 22008KT 10SM OVC042 M02/M07 A2988 RMK AO2 SLP131 T10221072
KITH 110356Z AUTO 23009KT 10SM OVC044 M02/M07 A2989 RMK AO2 SLP133 T10171072 410061078
KITH 110256Z 23008KT 10SM OVC042 M02/M07 A2988 RMK AO2 SLP130 60000 T10171072 51006
KITH 110156Z 22010KT 10SM OVC045 M02/M07 A2988 RMK AO2 SLP129 T10171072
KITH 110056Z 22012KT 9SM OVC037 M02/M07 A2987 RMK AO2 SNE53 SLP127 P0000 T10171072
KITH 102356Z 23015G19KT 8SM -SN OVC045 M01/M07 A2986 RMK AO2 SLP124 P0000 60000 T10111072 11006 21022 51008
KITH 102256Z 24013G20KT 10SM -SN SCT028 BKN037 M01/M07 A2986 RMK AO2 UPB27E42SNB42 SLP124 P0000 T10111072
KITH 102156Z 24009KT 10SM SCT033 OVC045 M01/M07 A2984 RMK AO2 SNE52 SLP117 P0000 T10111067
KITH 102056Z 00000KT 10SM -SN OVC035 M02/M05 A2983 RMK AO2 SLP116 P0000 60000 T10171050 53001
KITH 101956Z 33005KT 10SM -SN OVC042 M02/M06 A2982 RMK AO2 SLP112 P0000 T10171056
KITH 101856Z 26008KT 10SM -SN SCT027 BKN042 M01/M06 A2982 RMK AO2 SLP110 P0000 T10061061
KITH 101756Z 25005KT 5SM -SN BR BKN018 BKN050 M02/M04 A2983 RMK AO2 SLP116 P0000 60000 T10171044 11011 21033 58003
KITH 101656Z 29010KT 5SM -SN BKN020 OVC033 M02/M06 A2983 RMK AO2 SLP117 P0000 T10171056
KITH 101556Z 26008KT 3SM -SN BKN009 OVC060 M02/M04 A2984 RMK AO2 SLP119 P0000 T10171044
KITH 101553Z 27011KT 3SM -SN BR BKN009 OVC060 M02/M04 A2984 RMK AO2 P0000
KITH 101516Z 28007KT 2SM SN OVC014 M02/M04 A2984 RMK AO2 P0000
KITH 101456Z 25008KT 9SM -SN SCT012 BKN026 M02/M04 A2984 RMK AO2 SLP120 P0000 60000 T10171039 51020
KITH 101356Z 24006KT 2SM SN OVC026 M02/M05 A2982 RMK AO2 SNB33 SLP114 P0000 T10221050
KITH 101339Z 23006KT 2SM SN OVC026 M02/M05 A2981 RMK AO2 SNB33 P0000
KITH 101256Z 23006KT 10SM BKN041 OVC065 M03/M06 A2980 RMK AO2 SLP107 T10281061
KITH 101156Z 24005KT 10SM OVC026 M03/M07 A2978 RMK AO2 SLP098 60000 T10331067 11033 21072 53014
KITH 101130Z 24005KT 10SM OVC026 M03/M07 A2977 RMK AO2
KITH 101056Z AUTO 22005KT 10SM BKN026 BKN037 OVC044 M03/M07 A2976 RMK AO2 SNB26E36 SLP092 P0000 T10331067
KITH 100956Z AUTO 23005KT 10SM OVC026 M03/M06 A2975 RMK AO2 SLP086 T10331061
KITH 100856Z AUTO 22005KT 9SM OVC028 M04/M06 A2974 RMK AO2 SNE52 SLP083 P0000 60000 T10391056 50006
KITH 100841Z AUTO 23004KT 9SM -SN BKN028 OVC041 M04/M06 A2974 RMK AO2 P0000
KITH 100827Z AUTO 23004KT 9SM -SN FEW022 BKN030 OVC040 M04/M06 A2974 RMK AO2 P0000
KITH 100756Z AUTO 24005KT 9SM -SN SCT021 BKN026 OVC055 M04/M07 A2974 RMK AO2 SNB30 SLP086 P0000 T10441067
KITH 100656Z AUTO 00000KT 10SM FEW034 SCT050 OVC060 M06/M08 A2973 RMK AO2 SLP082 T10611078
KITH 100556Z AUTO 00000KT 10SM SCT065 SCT080 OVC100 M07/M09 A2972 RMK AO2 SLP078 T10721089 11050 21089 58004
KITH 100456Z AUTO 00000KT 10SM SCT100 BKN120 M07/M08 A2973 RMK AO2 SLP080 T10671083
KITH 100356Z AUTO 00000KT 10SM BKN120 M08/M09 A2973 RMK AO2 SLP081 T10781094 410061089